createdAt,value
2023-06-05T00:00:29.865Z,15.92
2023-06-05T00:01:29.872Z,15.92
2023-06-05T00:02:29.926Z,15.86
2023-06-05T00:03:30.069Z,15.84
2023-06-05T00:04:29.855Z,15.78
2023-06-05T00:05:29.788Z,15.74
2023-06-05T00:06:29.802Z,15.71
2023-06-05T00:07:29.801Z,15.67
2023-06-05T00:08:29.787Z,15.67
2023-06-05T00:09:29.818Z,15.66
2023-06-05T00:10:29.751Z,15.62
2023-06-05T00:11:29.808Z,15.60
2023-06-05T00:12:29.719Z,15.60
2023-06-05T00:13:29.718Z,15.58
2023-06-05T00:14:29.772Z,15.58
2023-06-05T00:15:29.744Z,15.60
2023-06-05T00:16:29.806Z,15.59
2023-06-05T00:17:29.762Z,15.62
2023-06-05T00:18:29.705Z,15.62
2023-06-05T00:19:30.676Z,15.59
2023-06-05T00:20:29.663Z,15.56
2023-06-05T00:21:29.664Z,15.49
2023-06-05T00:22:29.676Z,15.44
2023-06-05T00:23:29.664Z,15.40
2023-06-05T00:24:29.604Z,15.41
2023-06-05T00:25:29.717Z,15.41
2023-06-05T00:26:29.612Z,15.41
2023-06-05T00:27:29.568Z,15.43
2023-06-05T00:28:29.648Z,15.40
2023-06-05T00:29:29.617Z,15.34
2023-06-05T00:30:29.565Z,15.34
2023-06-05T00:31:29.581Z,15.31
2023-06-05T00:32:29.603Z,15.30
2023-06-05T00:33:29.527Z,15.33
2023-06-05T00:34:29.582Z,15.27
2023-06-05T00:35:29.522Z,15.27
2023-06-05T00:36:29.477Z,15.30
2023-06-05T00:37:29.486Z,15.30
2023-06-05T00:38:29.497Z,15.22
2023-06-05T00:39:29.549Z,15.19
2023-06-05T00:40:29.440Z,15.20
2023-06-05T00:41:29.752Z,15.15
2023-06-05T00:42:29.436Z,15.19
2023-06-05T00:43:29.448Z,15.16
2023-06-05T00:44:29.451Z,15.11
2023-06-05T00:45:29.448Z,15.09
2023-06-05T00:46:29.477Z,15.05
2023-06-05T00:47:29.412Z,14.97
2023-06-05T00:48:29.447Z,14.97
2023-06-05T00:49:29.419Z,14.97
2023-06-05T00:50:29.381Z,14.94
2023-06-05T00:51:29.393Z,14.97
2023-06-05T00:52:29.333Z,14.95
2023-06-05T00:53:29.357Z,14.97
2023-06-05T00:54:29.344Z,14.98
2023-06-05T00:55:29.305Z,15.00
2023-06-05T00:56:29.325Z,14.97
2023-06-05T00:57:29.480Z,14.94
2023-06-05T00:58:29.272Z,14.94
2023-06-05T00:59:29.267Z,14.98
2023-06-05T01:00:29.259Z,14.93
2023-06-05T01:01:29.274Z,14.93
2023-06-05T01:02:29.303Z,14.93
2023-06-05T01:03:29.380Z,14.87
2023-06-05T01:04:29.228Z,14.90
2023-06-05T01:05:29.188Z,14.93
2023-06-05T01:06:29.274Z,14.90
2023-06-05T01:07:29.204Z,14.83
2023-06-05T01:08:29.179Z,14.79
2023-06-05T01:09:29.165Z,14.75
2023-06-05T01:10:29.159Z,14.79
2023-06-05T01:11:29.133Z,14.74
2023-06-05T01:12:29.146Z,14.72
2023-06-05T01:13:29.139Z,14.75
2023-06-05T01:14:29.256Z,14.74
2023-06-05T01:15:29.086Z,14.78
2023-06-05T01:16:29.096Z,14.80
2023-06-05T01:17:29.103Z,14.72
2023-06-05T01:18:29.075Z,14.75
2023-06-05T01:19:29.089Z,14.75
2023-06-05T01:20:29.054Z,14.71
2023-06-05T01:21:29.030Z,14.72
2023-06-05T01:22:29.267Z,14.67
2023-06-05T01:23:29.010Z,14.64
2023-06-05T01:24:29.476Z,14.64
2023-06-05T01:25:28.998Z,14.67
2023-06-05T01:26:28.993Z,14.64
2023-06-05T01:27:28.968Z,14.64
2023-06-05T01:28:29.019Z,14.64
2023-06-05T01:29:28.940Z,14.61
2023-06-05T01:30:28.941Z,14.63
2023-06-05T01:31:28.996Z,14.64
2023-06-05T01:32:28.943Z,14.64
2023-06-05T01:33:28.920Z,14.61
2023-06-05T01:34:28.934Z,14.63
2023-06-05T01:35:29.177Z,14.59
2023-06-05T01:36:28.921Z,14.64
2023-06-05T01:37:28.896Z,14.61
2023-06-05T01:38:28.893Z,14.59
2023-06-05T01:39:28.848Z,14.54
2023-06-05T01:40:28.839Z,14.56
2023-06-05T01:41:28.832Z,14.56
2023-06-05T01:42:28.841Z,14.53
2023-06-05T01:43:28.818Z,14.57
2023-06-05T01:44:28.796Z,14.56
2023-06-05T01:45:28.786Z,14.56
2023-06-05T01:46:28.798Z,14.54
2023-06-05T01:47:28.781Z,14.60
2023-06-05T01:48:28.758Z,14.56
2023-06-05T01:49:28.754Z,14.59
2023-06-05T01:50:28.742Z,14.57
2023-06-05T01:51:28.751Z,14.59
2023-06-05T01:52:28.713Z,14.57
2023-06-05T01:53:28.731Z,14.60
2023-06-05T01:54:28.743Z,14.56
2023-06-05T01:55:28.735Z,14.61
2023-06-05T01:56:28.719Z,14.59
2023-06-05T01:57:28.699Z,14.57
2023-06-05T01:58:28.669Z,14.56
2023-06-05T01:59:28.639Z,14.60
2023-06-05T02:00:28.641Z,14.57
2023-06-05T02:01:28.678Z,14.56
2023-06-05T02:02:28.674Z,14.54
2023-06-05T02:03:28.722Z,14.56
2023-06-05T02:04:28.587Z,14.49
2023-06-05T02:05:28.573Z,14.52
2023-06-05T02:06:28.591Z,14.54
2023-06-05T02:07:28.556Z,14.49
2023-06-05T02:08:28.576Z,14.53
2023-06-05T02:09:28.802Z,14.53
2023-06-05T02:10:28.531Z,14.53
2023-06-05T02:11:28.532Z,14.56
2023-06-05T02:12:28.513Z,14.53
2023-06-05T02:13:28.537Z,14.56
2023-06-05T02:14:28.501Z,14.56
2023-06-05T02:15:28.528Z,14.49
2023-06-05T02:16:28.524Z,14.56
2023-06-05T02:17:28.500Z,14.52
2023-06-05T02:18:28.526Z,14.53
2023-06-05T02:19:28.435Z,14.53
2023-06-05T02:20:28.530Z,14.49
2023-06-05T02:21:28.391Z,14.53
2023-06-05T02:22:28.462Z,14.53
2023-06-05T02:23:28.447Z,14.46
2023-06-05T02:24:28.399Z,14.53
2023-06-05T02:25:28.380Z,14.52
2023-06-05T02:26:28.389Z,14.49
2023-06-05T02:27:28.385Z,14.52
2023-06-05T02:28:28.392Z,14.48
2023-06-05T02:29:28.348Z,14.48
2023-06-05T02:30:28.350Z,14.46
2023-06-05T02:31:28.367Z,14.45
2023-06-05T02:32:28.388Z,14.46
2023-06-05T02:33:28.272Z,14.48
2023-06-05T02:34:28.288Z,14.44
2023-06-05T02:35:28.281Z,14.44
2023-06-05T02:36:28.272Z,14.42
2023-06-05T02:37:28.276Z,14.41
2023-06-05T02:38:28.248Z,14.38
2023-06-05T02:39:28.204Z,14.41
2023-06-05T02:40:28.208Z,14.39
2023-06-05T02:41:28.232Z,14.38
2023-06-05T02:42:28.201Z,14.39
2023-06-05T02:43:28.187Z,14.35
2023-06-05T02:44:28.199Z,14.35
2023-06-05T02:45:28.205Z,14.36
2023-06-05T02:46:28.177Z,14.35
2023-06-05T02:47:28.208Z,14.31
2023-06-05T02:48:28.123Z,14.35
2023-06-05T02:49:28.124Z,14.31
2023-06-05T02:50:28.143Z,14.34
2023-06-05T02:51:28.101Z,14.30
2023-06-05T02:52:28.127Z,14.29
2023-06-05T02:53:28.071Z,14.27
2023-06-05T02:54:28.088Z,14.24
2023-06-05T02:55:28.077Z,14.26
2023-06-05T02:56:28.087Z,14.26
2023-06-05T02:57:28.082Z,14.24
2023-06-05T02:58:28.203Z,14.21
2023-06-05T02:59:28.009Z,14.26
2023-06-05T03:00:28.017Z,14.23
2023-06-05T03:01:28.042Z,14.23
2023-06-05T03:02:28.099Z,14.21
2023-06-05T03:03:28.068Z,14.16
2023-06-05T03:04:27.991Z,14.13
2023-06-05T03:05:27.968Z,14.09
2023-06-05T03:06:27.987Z,14.12
2023-06-05T03:07:27.966Z,14.06
2023-06-05T03:08:28.048Z,14.06
2023-06-05T03:09:27.937Z,14.08
2023-06-05T03:10:28.163Z,14.02
2023-06-05T03:11:27.972Z,14.02
2023-06-05T03:12:27.895Z,14.01
2023-06-05T03:13:27.895Z,14.02
2023-06-05T03:14:27.867Z,14.02
2023-06-05T03:15:27.840Z,14.01
2023-06-05T03:16:27.906Z,13.93
2023-06-05T03:17:27.837Z,13.91
2023-06-05T03:18:27.838Z,13.93
2023-06-05T03:19:27.820Z,13.93
2023-06-05T03:20:27.844Z,13.90
2023-06-05T03:21:27.885Z,13.87
2023-06-05T03:22:27.790Z,13.87
2023-06-05T03:23:27.805Z,13.88
2023-06-05T03:24:28.020Z,13.87
2023-06-05T03:25:27.794Z,13.84
2023-06-05T03:26:27.725Z,13.87
2023-06-05T03:27:27.761Z,13.83
2023-06-05T03:28:27.715Z,13.83
2023-06-05T03:29:27.723Z,13.83
2023-06-05T03:30:27.696Z,13.73
2023-06-05T03:31:27.691Z,13.79
2023-06-05T03:32:27.715Z,13.72
2023-06-05T03:33:27.676Z,13.79
2023-06-05T03:34:27.681Z,13.75
2023-06-05T03:35:27.733Z,13.81
2023-06-05T03:36:27.626Z,13.75
2023-06-05T03:37:27.630Z,13.73
2023-06-05T03:38:27.620Z,13.72
2023-06-05T03:39:27.594Z,13.71
2023-06-05T03:40:27.657Z,13.71
2023-06-05T03:41:27.579Z,13.69
2023-06-05T03:42:27.603Z,13.63
2023-06-05T03:43:27.589Z,13.66
2023-06-05T03:44:27.551Z,13.68
2023-06-05T03:45:27.554Z,13.69
2023-06-05T03:46:27.568Z,13.71
2023-06-05T03:47:27.545Z,13.72
2023-06-05T03:48:27.502Z,13.69
2023-06-05T03:49:28.235Z,13.66
2023-06-05T03:50:27.505Z,13.68
2023-06-05T03:51:27.505Z,13.62
2023-06-05T03:52:27.461Z,13.69
2023-06-05T03:53:27.501Z,13.66
2023-06-05T03:54:27.453Z,13.62
2023-06-05T03:55:27.424Z,13.62
2023-06-05T03:56:27.486Z,13.65
2023-06-05T03:57:27.642Z,13.63
2023-06-05T03:58:27.438Z,13.66
2023-06-05T03:59:27.379Z,13.65
2023-06-05T04:00:27.390Z,13.63
2023-06-05T04:01:27.423Z,13.66
2023-06-05T04:02:27.561Z,13.71
2023-06-05T04:03:27.481Z,13.69
2023-06-05T04:04:27.343Z,13.68
2023-06-05T04:05:27.323Z,13.76
2023-06-05T04:06:27.311Z,13.73
2023-06-05T04:07:27.305Z,13.75
2023-06-05T04:08:27.307Z,13.76
2023-06-05T04:09:27.324Z,13.72
2023-06-05T04:10:27.300Z,13.80
2023-06-05T04:11:27.293Z,13.73
2023-06-05T04:12:27.317Z,13.72
2023-06-05T04:13:27.244Z,13.76
2023-06-05T04:14:27.262Z,13.72
2023-06-05T04:15:27.235Z,13.79
2023-06-05T04:16:27.301Z,13.80
2023-06-05T04:17:27.225Z,13.83
2023-06-05T04:18:27.408Z,13.83
2023-06-05T04:19:27.186Z,13.84
2023-06-05T04:20:27.209Z,13.84
2023-06-05T04:21:28.442Z,13.84
2023-06-05T04:22:27.179Z,13.84
2023-06-05T04:23:27.185Z,13.84
2023-06-05T04:24:27.129Z,13.88
2023-06-05T04:25:27.129Z,13.93
2023-06-05T04:26:27.245Z,13.94
2023-06-05T04:27:27.108Z,13.99
2023-06-05T04:28:27.099Z,13.98
2023-06-05T04:29:27.073Z,13.96
2023-06-05T04:30:27.131Z,13.99
2023-06-05T04:31:27.171Z,13.94
2023-06-05T04:32:27.201Z,13.98
2023-06-05T04:33:27.053Z,13.94
2023-06-05T04:34:27.062Z,13.96
2023-06-05T04:35:27.023Z,13.99
2023-06-05T04:36:27.051Z,13.99
2023-06-05T04:37:27.018Z,14.05
2023-06-05T04:38:27.027Z,14.04
2023-06-05T04:39:27.002Z,14.06
2023-06-05T04:40:27.040Z,14.11
2023-06-05T04:41:26.959Z,14.13
2023-06-05T04:42:26.950Z,14.16
2023-06-05T04:43:26.957Z,14.16
2023-06-05T04:44:26.976Z,14.16
2023-06-05T04:45:26.917Z,14.20
2023-06-05T04:46:27.130Z,14.21
2023-06-05T04:47:26.919Z,14.20
2023-06-05T04:48:27.742Z,14.20
2023-06-05T04:49:26.914Z,14.20
2023-06-05T04:50:26.872Z,14.21
2023-06-05T04:51:26.861Z,14.20
2023-06-05T04:52:26.900Z,14.21
2023-06-05T04:53:26.825Z,14.26
2023-06-05T04:54:26.892Z,14.27
2023-06-05T04:55:26.825Z,14.30
2023-06-05T04:56:26.839Z,14.36
2023-06-05T04:57:26.804Z,14.34
2023-06-05T04:58:26.790Z,14.35
2023-06-05T04:59:26.859Z,14.36
2023-06-05T05:00:26.837Z,14.41
2023-06-05T05:01:26.804Z,14.38
2023-06-05T05:02:26.866Z,14.41
2023-06-05T05:03:26.742Z,14.48
2023-06-05T05:04:26.874Z,14.49
2023-06-05T05:05:26.711Z,14.53
2023-06-05T05:06:26.717Z,14.61
2023-06-05T05:07:26.758Z,14.63
2023-06-05T05:08:26.714Z,14.69
2023-06-05T05:09:26.983Z,14.75
2023-06-05T05:10:26.707Z,14.82
2023-06-05T05:11:26.715Z,14.82
2023-06-05T05:12:26.657Z,14.78
2023-06-05T05:13:26.691Z,14.78
2023-06-05T05:14:27.290Z,14.78
2023-06-05T05:15:26.621Z,14.85
2023-06-05T05:16:26.670Z,14.90
2023-06-05T05:17:26.647Z,14.91
2023-06-05T05:18:26.597Z,14.94
2023-06-05T05:19:26.576Z,14.94
2023-06-05T05:20:26.584Z,14.93
2023-06-05T05:21:26.544Z,14.93
2023-06-05T05:22:26.545Z,14.91
2023-06-05T05:23:26.621Z,14.97
2023-06-05T05:24:26.508Z,14.95
2023-06-05T05:25:26.538Z,14.94
2023-06-05T05:26:26.521Z,15.00
2023-06-05T05:27:26.540Z,15.03
2023-06-05T05:28:26.483Z,15.03
2023-06-05T05:29:26.492Z,15.07
2023-06-05T05:30:26.444Z,15.13
2023-06-05T05:31:26.481Z,15.18
2023-06-05T05:32:26.513Z,15.07
2023-06-05T05:33:26.438Z,15.15
2023-06-05T05:34:26.452Z,15.16
2023-06-05T05:35:26.428Z,15.23
2023-06-05T05:36:26.453Z,15.33
2023-06-05T05:37:26.394Z,15.35
2023-06-05T05:38:26.402Z,15.44
2023-06-05T05:39:26.375Z,15.52
2023-06-05T05:40:26.360Z,15.56
2023-06-05T05:41:26.339Z,15.64
2023-06-05T05:42:26.353Z,15.74
2023-06-05T05:43:26.333Z,15.67
2023-06-05T05:44:26.363Z,15.66
2023-06-05T05:45:26.349Z,15.64
2023-06-05T05:46:27.755Z,15.67
2023-06-05T05:47:26.337Z,15.67
2023-06-05T05:48:26.306Z,15.68
2023-06-05T05:49:26.265Z,15.74
2023-06-05T05:50:26.243Z,15.73
2023-06-05T05:51:26.279Z,15.78
2023-06-05T05:52:26.236Z,15.77
2023-06-05T05:53:26.221Z,15.74
2023-06-05T05:54:26.212Z,15.74
2023-06-05T05:55:26.199Z,15.84
2023-06-05T05:56:26.181Z,15.81
2023-06-05T05:57:26.190Z,15.86
2023-06-05T05:58:26.257Z,15.89
2023-06-05T05:59:26.158Z,15.95
2023-06-05T06:00:26.196Z,15.93
2023-06-05T06:01:26.142Z,16.04
2023-06-05T06:02:26.197Z,16.18
2023-06-05T06:03:26.169Z,16.26
2023-06-05T06:04:26.119Z,16.30
2023-06-05T06:05:26.125Z,16.44
2023-06-05T06:06:26.109Z,16.48
2023-06-05T06:07:26.118Z,16.60
2023-06-05T06:08:26.127Z,16.67
2023-06-05T06:09:26.098Z,16.77
2023-06-05T06:10:26.038Z,16.81
2023-06-05T06:11:26.037Z,16.87
2023-06-05T06:12:26.028Z,16.91
2023-06-05T06:13:26.013Z,16.95
2023-06-05T06:14:26.092Z,16.95
2023-06-05T06:15:26.012Z,16.99
2023-06-05T06:16:26.048Z,17.07
2023-06-05T06:17:25.993Z,17.14
2023-06-05T06:18:26.780Z,17.14
2023-06-05T06:19:25.987Z,17.28
2023-06-05T06:20:25.957Z,17.32
2023-06-05T06:21:25.911Z,17.35
2023-06-05T06:22:25.917Z,17.35
2023-06-05T06:23:25.950Z,17.39
2023-06-05T06:24:25.943Z,17.49
2023-06-05T06:25:25.905Z,17.51
2023-06-05T06:26:25.871Z,17.58
2023-06-05T06:28:25.895Z,17.62
2023-06-05T06:29:25.852Z,17.70
2023-06-05T06:30:25.910Z,17.77
2023-06-05T06:31:25.874Z,17.80
2023-06-05T06:32:25.827Z,17.84
2023-06-05T06:33:25.854Z,17.91
2023-06-05T06:34:25.809Z,17.89
2023-06-05T06:35:25.942Z,17.89
2023-06-05T06:36:25.789Z,17.94
2023-06-05T06:37:25.785Z,17.94
2023-06-05T06:38:25.789Z,18.01
2023-06-05T06:39:25.816Z,18.02
2023-06-05T06:40:25.755Z,18.07
2023-06-05T06:41:25.757Z,17.95
2023-06-05T06:42:25.749Z,17.99
2023-06-05T06:43:25.710Z,17.96
2023-06-05T06:44:25.712Z,18.01
2023-06-05T06:45:25.688Z,18.09
2023-06-05T06:46:25.705Z,18.13
2023-06-05T06:47:25.823Z,18.29
2023-06-05T06:48:26.404Z,18.35
2023-06-05T06:49:25.788Z,18.42
2023-06-05T06:50:25.796Z,18.54
2023-06-05T06:51:25.873Z,18.49
2023-06-05T06:52:26.362Z,18.34
2023-06-05T06:53:25.707Z,18.28
2023-06-05T06:54:25.599Z,18.34
2023-06-05T06:55:25.630Z,18.31
2023-06-05T06:56:25.568Z,18.39
2023-06-05T06:57:25.555Z,18.32
2023-06-05T06:58:28.354Z,18.25
2023-06-05T06:59:25.548Z,18.20
2023-06-05T07:00:25.594Z,18.11
2023-06-05T07:01:25.562Z,18.21
2023-06-05T07:02:25.621Z,18.31
2023-06-05T07:03:25.629Z,18.46
2023-06-05T07:04:25.524Z,18.59
2023-06-05T07:05:25.530Z,18.76
2023-06-05T07:06:25.472Z,18.86
2023-06-05T07:07:26.281Z,18.90
2023-06-05T07:08:25.502Z,18.90
2023-06-05T07:09:25.469Z,18.93
2023-06-05T07:10:25.465Z,18.99
2023-06-05T07:11:25.486Z,19.10
2023-06-05T07:12:25.446Z,19.24
2023-06-05T07:13:25.495Z,19.27
2023-06-05T07:14:25.413Z,19.35
2023-06-05T07:15:25.385Z,19.46
2023-06-05T07:16:26.400Z,19.53
2023-06-05T07:17:25.391Z,19.64
2023-06-05T07:18:25.627Z,19.75
2023-06-05T07:19:25.459Z,19.79
2023-06-05T07:20:25.406Z,19.89
2023-06-05T07:21:25.355Z,19.92
2023-06-05T07:22:25.327Z,19.85
2023-06-05T07:23:25.365Z,19.75
2023-06-05T07:24:25.293Z,19.65
2023-06-05T07:25:25.319Z,19.64
2023-06-05T07:26:25.528Z,19.79
2023-06-05T07:27:25.302Z,19.90
2023-06-05T07:28:25.282Z,19.86
2023-06-05T07:29:25.241Z,19.87
2023-06-05T07:30:25.318Z,19.94
2023-06-05T07:31:25.287Z,19.95
2023-06-05T07:32:25.306Z,20.04
2023-06-05T07:33:30.770Z,20.13
2023-06-05T07:34:25.418Z,20.13
2023-06-05T07:35:25.224Z,20.16
2023-06-05T07:36:25.238Z,20.26
2023-06-05T07:37:25.174Z,20.31
2023-06-05T07:38:25.141Z,20.41
2023-06-05T07:39:25.163Z,20.54
2023-06-05T07:40:25.119Z,20.61
2023-06-05T07:41:25.140Z,20.64
2023-06-05T07:42:25.222Z,20.61
2023-06-05T07:43:25.137Z,20.54
2023-06-05T07:44:25.099Z,20.64
2023-06-05T07:45:25.164Z,20.60
2023-06-05T07:46:25.128Z,20.54
2023-06-05T07:47:25.096Z,20.51
2023-06-05T07:48:25.033Z,20.54
2023-06-05T07:49:25.085Z,20.63
2023-06-05T07:50:25.038Z,20.78
2023-06-05T07:51:25.014Z,20.90
2023-06-05T07:52:25.228Z,21.08
2023-06-05T07:53:25.167Z,21.18
2023-06-05T07:54:25.005Z,21.16
2023-06-05T07:55:25.012Z,21.12
2023-06-05T07:56:24.957Z,21.24
2023-06-05T07:57:25.041Z,21.34
2023-06-05T07:58:24.960Z,21.33
2023-06-05T07:59:24.979Z,21.36
2023-06-05T08:00:24.961Z,21.42
2023-06-05T08:01:24.956Z,21.51
2023-06-05T08:02:25.242Z,21.58
2023-06-05T08:03:25.086Z,21.66
2023-06-05T08:04:25.002Z,21.67
2023-06-05T08:05:24.891Z,21.66
2023-06-05T08:06:24.839Z,21.56
2023-06-05T08:07:24.885Z,21.53
2023-06-05T08:08:24.926Z,21.64
2023-06-05T08:09:24.830Z,21.71
2023-06-05T08:10:25.044Z,21.74
2023-06-05T08:11:24.943Z,21.86
2023-06-05T08:12:24.793Z,21.91
2023-06-05T08:13:24.809Z,21.93
2023-06-05T08:14:24.776Z,21.93
2023-06-05T08:15:24.801Z,21.98
2023-06-05T08:16:24.872Z,22.01
2023-06-05T08:17:24.869Z,21.94
2023-06-05T08:18:24.799Z,21.91
2023-06-05T08:19:24.764Z,22.11
2023-06-05T08:20:24.756Z,22.12
2023-06-05T08:21:24.705Z,22.12
2023-06-05T08:22:24.715Z,22.21
2023-06-05T08:23:24.670Z,22.26
2023-06-05T08:24:24.654Z,22.29
2023-06-05T08:25:24.725Z,22.33
2023-06-05T08:26:24.875Z,22.41
2023-06-05T08:27:24.676Z,22.52
2023-06-05T08:28:25.329Z,22.63
2023-06-05T08:29:24.678Z,22.61
2023-06-05T08:30:24.795Z,22.66
2023-06-05T08:31:24.641Z,22.64
2023-06-05T08:32:24.606Z,22.67
2023-06-05T08:33:24.572Z,22.57
2023-06-05T08:34:24.601Z,22.51
2023-06-05T08:35:24.625Z,22.60
2023-06-05T08:36:24.549Z,22.66
2023-06-05T08:37:24.602Z,22.63
2023-06-05T08:38:24.524Z,22.74
2023-06-05T08:39:24.675Z,22.84
2023-06-05T08:40:24.507Z,22.76
2023-06-05T08:41:24.526Z,22.59
2023-06-05T08:42:24.478Z,22.66
2023-06-05T08:43:24.600Z,22.75
2023-06-05T08:44:24.503Z,22.79
2023-06-05T08:45:24.478Z,22.72
2023-06-05T08:46:24.749Z,22.86
2023-06-05T08:47:24.501Z,22.99
2023-06-05T08:48:24.502Z,23.06
2023-06-05T08:49:24.398Z,23.00
2023-06-05T08:50:24.390Z,23.03
2023-06-05T08:51:24.399Z,23.14
2023-06-05T08:52:24.384Z,23.23
2023-06-05T08:53:24.395Z,23.42
2023-06-05T08:54:24.851Z,23.45
2023-06-05T08:55:24.364Z,23.53
2023-06-05T08:56:24.319Z,23.60
2023-06-05T08:57:24.363Z,23.54
2023-06-05T08:58:24.338Z,23.53
2023-06-05T08:59:24.355Z,23.59
2023-06-05T09:00:24.284Z,23.53
2023-06-05T09:01:24.345Z,23.53
2023-06-05T09:02:24.313Z,23.50
2023-06-05T09:03:24.281Z,23.49
2023-06-05T09:04:25.897Z,23.59
2023-06-05T09:05:24.257Z,23.67
2023-06-05T09:06:24.273Z,23.74
2023-06-05T09:07:24.249Z,23.69
2023-06-05T09:08:24.415Z,23.71
2023-06-05T09:09:24.202Z,23.78
2023-06-05T09:10:24.271Z,23.87
2023-06-05T09:11:25.354Z,24.04
2023-06-05T09:12:24.280Z,24.11
2023-06-05T09:13:24.160Z,24.19
2023-06-05T09:14:24.140Z,24.12
2023-06-05T09:15:24.781Z,24.27
2023-06-05T09:16:24.389Z,24.34
2023-06-05T09:17:24.166Z,24.41
2023-06-05T09:18:24.397Z,24.18
2023-06-05T09:19:24.155Z,24.09
2023-06-05T09:20:24.120Z,23.97
2023-06-05T09:21:24.087Z,24.11
2023-06-05T09:22:24.093Z,24.26
2023-06-05T09:23:25.848Z,24.26
2023-06-05T09:24:24.368Z,24.34
2023-06-05T09:25:24.096Z,24.30
2023-06-05T09:26:24.060Z,24.44
2023-06-05T09:27:24.034Z,24.56
2023-06-05T09:28:24.035Z,24.59
2023-06-05T09:29:24.022Z,24.63
2023-06-05T09:30:24.000Z,24.63
2023-06-05T09:31:25.000Z,24.55
2023-06-05T09:32:24.020Z,24.61
2023-06-05T09:33:23.961Z,24.80
2023-06-05T09:34:23.963Z,25.04
2023-06-05T09:35:23.935Z,25.19
2023-06-05T09:36:23.950Z,25.04
2023-06-05T09:37:23.948Z,24.79
2023-06-05T09:38:23.911Z,24.75
2023-06-05T09:39:23.899Z,24.86
2023-06-05T09:40:23.885Z,24.92
2023-06-05T09:41:25.892Z,24.84
2023-06-05T09:42:23.889Z,24.86
2023-06-05T09:43:23.862Z,24.87
2023-06-05T09:44:23.981Z,24.93
2023-06-05T09:45:23.889Z,24.93
2023-06-05T09:46:23.925Z,24.83
2023-06-05T09:47:23.883Z,24.86
2023-06-05T09:48:23.868Z,25.04
2023-06-05T09:49:23.835Z,25.14
2023-06-05T09:50:24.021Z,25.19
2023-06-05T09:51:23.808Z,25.27
2023-06-05T09:52:23.804Z,25.38
2023-06-05T09:53:23.787Z,25.45
2023-06-05T09:54:23.824Z,25.42
2023-06-05T09:55:23.760Z,25.48
2023-06-05T09:56:23.774Z,25.59
2023-06-05T09:57:23.774Z,25.57
2023-06-05T09:58:23.752Z,25.53
2023-06-05T09:59:23.701Z,25.57
2023-06-05T10:00:23.773Z,25.64
2023-06-05T10:01:24.015Z,25.72
2023-06-05T10:02:23.737Z,25.85
2023-06-05T10:03:23.639Z,25.90
2023-06-05T10:04:23.683Z,25.96
2023-06-05T10:05:24.154Z,26.00
2023-06-05T10:06:23.707Z,26.00
2023-06-05T10:07:23.649Z,25.93
2023-06-05T10:08:23.688Z,25.91
2023-06-05T10:09:23.629Z,26.06
2023-06-05T10:10:23.589Z,26.20
2023-06-05T10:11:23.571Z,26.24
2023-06-05T10:12:23.581Z,26.27
2023-06-05T10:13:23.820Z,26.27
2023-06-05T10:14:23.561Z,26.21
2023-06-05T10:15:23.556Z,26.12
2023-06-05T10:16:26.967Z,26.08
2023-06-05T10:17:23.586Z,26.06
2023-06-05T10:18:23.914Z,26.12
2023-06-05T10:19:23.596Z,25.93
2023-06-05T10:20:23.493Z,26.08
2023-06-05T10:21:23.544Z,26.19
2023-06-05T10:22:23.577Z,26.08
2023-06-05T10:23:23.481Z,26.27
2023-06-05T10:24:23.438Z,26.36
2023-06-05T10:25:23.521Z,26.53
2023-06-05T10:26:23.442Z,26.54
2023-06-05T10:27:23.496Z,26.59
2023-06-05T10:28:23.494Z,26.59
2023-06-05T10:29:23.441Z,26.47
2023-06-05T10:30:24.010Z,26.61
2023-06-05T10:31:23.452Z,26.65
2023-06-05T10:32:23.439Z,26.49
2023-06-05T10:33:23.356Z,26.49
2023-06-05T10:34:23.404Z,26.54
2023-06-05T10:35:23.401Z,26.73
2023-06-05T10:36:23.381Z,26.72
2023-06-05T10:37:23.978Z,26.66
2023-06-05T10:38:23.390Z,26.69
2023-06-05T10:39:23.458Z,26.96
2023-06-05T10:40:23.352Z,26.90
2023-06-05T10:41:23.261Z,27.02
2023-06-05T10:42:23.270Z,26.84
2023-06-05T10:43:23.247Z,26.88
2023-06-05T10:44:23.271Z,26.66
2023-06-05T10:45:23.279Z,26.76
2023-06-05T10:46:23.307Z,26.91
2023-06-05T10:47:23.350Z,27.12
2023-06-05T10:48:23.206Z,27.33
2023-06-05T10:49:23.209Z,27.12
2023-06-05T10:50:23.269Z,27.08
2023-06-05T10:51:23.233Z,27.06
2023-06-05T10:52:23.210Z,27.25
2023-06-05T10:53:23.136Z,27.43
2023-06-05T10:54:23.234Z,27.50
2023-06-05T10:55:23.171Z,27.53
2023-06-05T10:56:23.214Z,27.59
2023-06-05T10:57:23.120Z,27.78
2023-06-05T10:58:23.133Z,27.96
2023-06-05T10:59:23.196Z,28.15
2023-06-05T11:00:23.252Z,28.18
2023-06-05T11:01:23.159Z,28.21
2023-06-05T11:02:23.081Z,28.38
2023-06-05T11:03:23.113Z,27.93
2023-06-05T11:04:23.106Z,27.45
2023-06-05T11:05:23.106Z,27.38
2023-06-05T11:06:23.074Z,27.45
2023-06-05T11:07:23.087Z,27.66
2023-06-05T11:08:23.131Z,27.78
2023-06-05T11:09:23.013Z,27.98
2023-06-05T11:10:23.018Z,28.17
2023-06-05T11:11:23.001Z,28.08
2023-06-05T11:12:23.119Z,28.01
2023-06-05T11:13:22.958Z,28.15
2023-06-05T11:14:22.996Z,27.91
2023-06-05T11:15:23.104Z,27.83
2023-06-05T11:16:23.117Z,27.62
2023-06-05T11:17:22.936Z,27.30
2023-06-05T11:18:22.893Z,27.34
2023-06-05T11:19:22.960Z,27.38
2023-06-05T11:20:22.997Z,27.33
2023-06-05T11:21:22.905Z,27.15
2023-06-05T11:22:22.879Z,26.96
2023-06-05T11:23:22.930Z,26.66
2023-06-05T11:24:23.090Z,26.59
2023-06-05T11:25:22.862Z,26.83
2023-06-05T11:26:23.464Z,27.18
2023-06-05T11:27:22.863Z,27.34
2023-06-05T11:28:22.904Z,27.58
2023-06-05T11:29:22.768Z,27.61
2023-06-05T11:30:39.221Z,27.84
2023-06-05T11:31:22.940Z,27.90
2023-06-05T11:32:23.054Z,28.09
2023-06-05T11:33:23.158Z,27.86
2023-06-05T11:34:23.426Z,27.38
2023-06-05T11:35:22.755Z,27.18
2023-06-05T11:36:22.763Z,27.28
2023-06-05T11:37:22.718Z,27.15
2023-06-05T11:38:24.008Z,27.05
2023-06-05T11:39:22.730Z,27.05
2023-06-05T11:40:22.732Z,27.12
2023-06-05T11:41:22.712Z,27.30
2023-06-05T11:42:22.681Z,26.90
2023-06-05T11:43:22.876Z,26.88
2023-06-05T11:44:22.685Z,27.24
2023-06-05T11:45:22.640Z,27.49
2023-06-05T11:46:22.685Z,27.76
2023-06-05T11:47:22.654Z,28.15
2023-06-05T11:48:22.649Z,28.23
2023-06-05T11:49:22.624Z,28.36
2023-06-05T11:50:22.598Z,28.67
2023-06-05T11:51:22.568Z,28.73
2023-06-05T11:52:22.584Z,28.55
2023-06-05T11:53:22.598Z,28.38
2023-06-05T11:54:22.556Z,28.45
2023-06-05T11:55:22.787Z,28.74
2023-06-05T11:56:22.519Z,29.10
2023-06-05T11:57:22.582Z,29.21
2023-06-05T11:58:22.510Z,28.92
2023-06-05T11:59:22.505Z,28.57
2023-06-05T12:00:22.539Z,28.72
2023-06-05T12:01:23.296Z,28.58
2023-06-05T12:02:22.503Z,28.58
2023-06-05T12:03:22.593Z,28.74
2023-06-05T12:04:22.547Z,28.92
2023-06-05T12:05:22.462Z,28.98
2023-06-05T12:06:22.540Z,29.11
2023-06-05T12:07:22.471Z,28.97
2023-06-05T12:08:22.437Z,29.05
2023-06-05T12:09:22.409Z,29.35
2023-06-05T12:10:22.382Z,29.35
2023-06-05T12:11:22.369Z,28.91
2023-06-05T12:12:22.422Z,28.43
2023-06-05T12:13:22.406Z,28.55
2023-06-05T12:14:22.441Z,28.67
2023-06-05T12:15:22.588Z,28.85
2023-06-05T12:16:22.444Z,29.08
2023-06-05T12:17:22.375Z,29.29
2023-06-05T12:18:22.362Z,29.18
2023-06-05T12:19:22.306Z,29.33
2023-06-05T12:20:22.397Z,29.49
2023-06-05T12:21:22.290Z,29.63
2023-06-05T12:22:22.397Z,29.74
2023-06-05T12:23:22.307Z,29.60
2023-06-05T12:24:22.236Z,29.60
2023-06-05T12:25:22.410Z,29.00
2023-06-05T12:26:22.238Z,28.21
2023-06-05T12:27:22.234Z,28.18
2023-06-05T12:28:22.204Z,28.64
2023-06-05T12:29:22.204Z,28.94
2023-06-05T12:30:22.214Z,29.14
2023-06-05T12:31:22.257Z,29.27
2023-06-05T12:32:23.030Z,29.15
2023-06-05T12:33:22.288Z,29.07
2023-06-05T12:34:22.185Z,29.08
2023-06-05T12:35:22.208Z,28.91
2023-06-05T12:36:22.160Z,28.82
2023-06-05T12:37:22.176Z,28.69
2023-06-05T12:38:22.212Z,28.15
2023-06-05T12:39:22.174Z,27.80
2023-06-05T12:40:34.632Z,28.01
2023-06-05T12:41:22.101Z,28.40
2023-06-05T12:42:22.124Z,28.64
2023-06-05T12:43:22.084Z,28.85
2023-06-05T12:44:22.101Z,28.77
2023-06-05T12:45:22.129Z,28.94
2023-06-05T12:46:22.155Z,29.20
2023-06-05T12:47:22.096Z,29.37
2023-06-05T12:48:22.081Z,29.45
2023-06-05T12:49:22.943Z,29.64
2023-06-05T12:50:22.128Z,29.18
2023-06-05T12:51:22.009Z,29.10
2023-06-05T12:52:22.031Z,29.05
2023-06-05T12:53:22.036Z,29.29